sensor_id;sensor_type;location;lat;lon;timestamp;P1;durP1;ratioP1;P2;durP2;ratioP2
11191;SDS011;5652;48.406;10.820;2023-02-11T00:01:21;50.40;;;32.70;;
11191;SDS011;5652;48.406;10.820;2023-02-11T00:03:50;54.33;;;35.03;;
11191;SDS011;5652;48.406;10.820;2023-02-11T00:06:17;56.50;;;35.50;;
11191;SDS011;5652;48.406;10.820;2023-02-11T00:08:44;55.10;;;34.13;;
11191;SDS011;5652;48.406;10.820;2023-02-11T00:11:12;53.55;;;34.67;;
11191;SDS011;5652;48.406;10.820;2023-02-11T00:13:39;50.42;;;33.50;;
11191;SDS011;5652;48.406;10.820;2023-02-11T00:16:07;51.07;;;34.40;;
11191;SDS011;5652;48.406;10.820;2023-02-11T00:18:36;55.45;;;34.72;;
11191;SDS011;5652;48.406;10.820;2023-02-11T00:21:06;57.53;;;34.92;;
11191;SDS011;5652;48.406;10.820;2023-02-11T00:23:34;53.08;;;33.67;;
11191;SDS011;5652;48.406;10.820;2023-02-11T00:26:01;53.30;;;34.97;;
11191;SDS011;5652;48.406;10.820;2023-02-11T00:28:28;54.10;;;33.67;;
11191;SDS011;5652;48.406;10.820;2023-02-11T00:30:57;50.92;;;34.45;;
11191;SDS011;5652;48.406;10.820;2023-02-11T00:33:25;50.10;;;33.92;;
11191;SDS011;5652;48.406;10.820;2023-02-11T00:35:54;53.97;;;34.30;;
11191;SDS011;5652;48.406;10.820;2023-02-11T00:38:21;54.58;;;34.35;;
11191;SDS011;5652;48.406;10.820;2023-02-11T00:40:48;62.90;;;39.92;;
11191;SDS011;5652;48.406;10.820;2023-02-11T00:43:15;62.33;;;38.00;;
11191;SDS011;5652;48.406;10.820;2023-02-11T00:45:42;59.65;;;37.60;;
11191;SDS011;5652;48.406;10.820;2023-02-11T00:48:09;58.58;;;37.40;;
11191;SDS011;5652;48.406;10.820;2023-02-11T00:50:36;59.47;;;37.05;;
11191;SDS011;5652;48.406;10.820;2023-02-11T00:53:05;54.05;;;36.22;;
11191;SDS011;5652;48.406;10.820;2023-02-11T00:55:32;58.85;;;35.55;;
11191;SDS011;5652;48.406;10.820;2023-02-11T00:57:59;62.55;;;37.85;;
11191;SDS011;5652;48.406;10.820;2023-02-11T01:00:26;58.83;;;37.00;;
11191;SDS011;5652;48.406;10.820;2023-02-11T01:02:54;59.53;;;36.92;;
11191;SDS011;5652;48.406;10.820;2023-02-11T01:05:21;56.50;;;35.55;;
11191;SDS011;5652;48.406;10.820;2023-02-11T01:07:48;54.92;;;35.25;;
11191;SDS011;5652;48.406;10.820;2023-02-11T01:10:17;53.42;;;34.15;;
11191;SDS011;5652;48.406;10.820;2023-02-11T01:12:44;54.67;;;34.03;;
11191;SDS011;5652;48.406;10.820;2023-02-11T01:15:12;54.47;;;33.50;;
11191;SDS011;5652;48.406;10.820;2023-02-11T01:17:40;52.10;;;33.60;;
11191;SDS011;5652;48.406;10.820;2023-02-11T01:20:08;50.00;;;33.70;;
11191;SDS011;5652;48.406;10.820;2023-02-11T01:22:39;55.47;;;34.30;;
11191;SDS011;5652;48.406;10.820;2023-02-11T01:25:06;61.35;;;36.35;;
11191;SDS011;5652;48.406;10.820;2023-02-11T01:27:35;56.47;;;36.33;;
11191;SDS011;5652;48.406;10.820;2023-02-11T01:30:03;59.65;;;37.13;;
11191;SDS011;5652;48.406;10.820;2023-02-11T01:32:32;58.78;;;37.10;;
11191;SDS011;5652;48.406;10.820;2023-02-11T01:34:59;58.60;;;36.28;;
11191;SDS011;5652;48.406;10.820;2023-02-11T01:37:26;58.67;;;36.58;;
11191;SDS011;5652;48.406;10.820;2023-02-11T01:39:53;58.65;;;36.90;;
11191;SDS011;5652;48.406;10.820;2023-02-11T01:42:21;64.18;;;39.63;;
11191;SDS011;5652;48.406;10.820;2023-02-11T01:44:51;64.35;;;40.33;;
11191;SDS011;5652;48.406;10.820;2023-02-11T01:47:19;67.57;;;40.13;;
11191;SDS011;5652;48.406;10.820;2023-02-11T01:49:48;64.32;;;39.53;;
11191;SDS011;5652;48.406;10.820;2023-02-11T01:52:17;61.70;;;38.17;;
11191;SDS011;5652;48.406;10.820;2023-02-11T01:54:48;62.28;;;38.05;;
11191;SDS011;5652;48.406;10.820;2023-02-11T01:57:34;60.17;;;37.70;;
11191;SDS011;5652;48.406;10.820;2023-02-11T02:00:06;63.72;;;39.13;;
11191;SDS011;5652;48.406;10.820;2023-02-11T02:02:36;61.20;;;37.78;;
11191;SDS011;5652;48.406;10.820;2023-02-11T02:05:07;64.53;;;38.45;;
11191;SDS011;5652;48.406;10.820;2023-02-11T02:07:36;57.53;;;35.70;;
11191;SDS011;5652;48.406;10.820;2023-02-11T02:10:07;58.53;;;36.13;;
11191;SDS011;5652;48.406;10.820;2023-02-11T02:12:35;59.00;;;36.78;;
11191;SDS011;5652;48.406;10.820;2023-02-11T02:17:54;58.50;;;36.15;;
11191;SDS011;5652;48.406;10.820;2023-02-11T02:20:40;62.30;;;37.20;;
11191;SDS011;5652;48.406;10.820;2023-02-11T02:29:00;69.40;;;41.17;;
11191;SDS011;5652;48.406;10.820;2023-02-11T02:31:38;68.30;;;40.25;;
11191;SDS011;5652;48.406;10.820;2023-02-11T02:34:14;62.80;;;39.63;;
11191;SDS011;5652;48.406;10.820;2023-02-11T02:36:46;63.15;;;38.53;;
11191;SDS011;5652;48.406;10.820;2023-02-11T02:42:18;67.70;;;40.13;;
11191;SDS011;5652;48.406;10.820;2023-02-11T02:44:49;66.43;;;41.08;;
11191;SDS011;5652;48.406;10.820;2023-02-11T02:47:16;65.78;;;40.15;;
11191;SDS011;5652;48.406;10.820;2023-02-11T02:49:45;65.50;;;40.83;;
11191;SDS011;5652;48.406;10.820;2023-02-11T02:52:17;61.45;;;39.05;;
11191;SDS011;5652;48.406;10.820;2023-02-11T02:55:01;58.50;;;38.08;;
11191;SDS011;5652;48.406;10.820;2023-02-11T02:57:34;64.68;;;38.95;;
11191;SDS011;5652;48.406;10.820;2023-02-11T03:00:12;60.90;;;39.30;;
11191;SDS011;5652;48.406;10.820;2023-02-11T03:02:44;61.27;;;38.67;;
11191;SDS011;5652;48.406;10.820;2023-02-11T03:05:19;61.40;;;39.35;;
11191;SDS011;5652;48.406;10.820;2023-02-11T03:07:50;64.68;;;39.95;;
11191;SDS011;5652;48.406;10.820;2023-02-11T03:10:19;55.25;;;35.75;;
11191;SDS011;5652;48.406;10.820;2023-02-11T03:12:47;47.13;;;31.30;;
11191;SDS011;5652;48.406;10.820;2023-02-11T03:15:15;57.50;;;34.45;;
11191;SDS011;5652;48.406;10.820;2023-02-11T03:17:43;64.20;;;40.30;;
11191;SDS011;5652;48.406;10.820;2023-02-11T03:20:12;64.15;;;40.22;;
11191;SDS011;5652;48.406;10.820;2023-02-11T03:22:41;64.30;;;39.58;;
11191;SDS011;5652;48.406;10.820;2023-02-11T03:25:12;62.92;;;39.67;;
11191;SDS011;5652;48.406;10.820;2023-02-11T03:27:40;59.28;;;38.03;;
11191;SDS011;5652;48.406;10.820;2023-02-11T03:30:10;62.50;;;39.08;;
11191;SDS011;5652;48.406;10.820;2023-02-11T03:32:39;68.47;;;40.67;;
11191;SDS011;5652;48.406;10.820;2023-02-11T03:35:09;62.47;;;40.05;;
11191;SDS011;5652;48.406;10.820;2023-02-11T03:37:38;62.92;;;38.50;;
11191;SDS011;5652;48.406;10.820;2023-02-11T03:40:09;63.72;;;37.50;;
11191;SDS011;5652;48.406;10.820;2023-02-11T03:42:40;60.20;;;37.85;;
11191;SDS011;5652;48.406;10.820;2023-02-11T03:45:09;57.38;;;36.78;;
11191;SDS011;5652;48.406;10.820;2023-02-11T03:47:38;60.72;;;37.55;;
11191;SDS011;5652;48.406;10.820;2023-02-11T03:50:07;61.83;;;38.75;;
11191;SDS011;5652;48.406;10.820;2023-02-11T03:52:36;63.67;;;39.93;;
11191;SDS011;5652;48.406;10.820;2023-02-11T03:55:05;62.30;;;40.30;;
11191;SDS011;5652;48.406;10.820;2023-02-11T03:57:35;59.85;;;37.42;;
11191;SDS011;5652;48.406;10.820;2023-02-11T04:00:02;59.55;;;38.25;;
11191;SDS011;5652;48.406;10.820;2023-02-11T04:02:30;57.63;;;37.67;;
11191;SDS011;5652;48.406;10.820;2023-02-11T04:04:58;60.90;;;38.25;;
11191;SDS011;5652;48.406;10.820;2023-02-11T04:07:26;56.88;;;38.25;;
11191;SDS011;5652;48.406;10.820;2023-02-11T04:09:53;57.13;;;36.70;;
11191;SDS011;5652;48.406;10.820;2023-02-11T04:12:20;55.70;;;36.00;;
11191;SDS011;5652;48.406;10.820;2023-02-11T04:14:49;59.15;;;37.63;;
11191;SDS011;5652;48.406;10.820;2023-02-11T04:17:16;54.80;;;36.83;;
11191;SDS011;5652;48.406;10.820;2023-02-11T04:19:43;54.85;;;35.90;;
11191;SDS011;5652;48.406;10.820;2023-02-11T04:22:10;57.35;;;35.97;;
11191;SDS011;5652;48.406;10.820;2023-02-11T04:24:38;55.63;;;36.25;;
11191;SDS011;5652;48.406;10.820;2023-02-11T04:27:05;55.03;;;35.75;;
11191;SDS011;5652;48.406;10.820;2023-02-11T04:29:32;55.40;;;36.72;;
11191;SDS011;5652;48.406;10.820;2023-02-11T04:32:04;56.22;;;36.10;;
11191;SDS011;5652;48.406;10.820;2023-02-11T04:34:31;52.90;;;36.08;;
11191;SDS011;5652;48.406;10.820;2023-02-11T04:36:58;52.03;;;34.45;;
11191;SDS011;5652;48.406;10.820;2023-02-11T04:39:25;52.37;;;34.63;;
11191;SDS011;5652;48.406;10.820;2023-02-11T04:41:52;49.05;;;32.97;;
11191;SDS011;5652;48.406;10.820;2023-02-11T04:44:20;49.25;;;33.28;;
11191;SDS011;5652;48.406;10.820;2023-02-11T04:46:47;50.85;;;33.75;;
11191;SDS011;5652;48.406;10.820;2023-02-11T04:49:16;50.92;;;33.75;;
11191;SDS011;5652;48.406;10.820;2023-02-11T04:51:43;50.13;;;32.75;;
11191;SDS011;5652;48.406;10.820;2023-02-11T04:54:10;49.37;;;33.30;;
11191;SDS011;5652;48.406;10.820;2023-02-11T04:56:38;47.63;;;32.53;;
11191;SDS011;5652;48.406;10.820;2023-02-11T04:59:05;46.65;;;31.65;;
11191;SDS011;5652;48.406;10.820;2023-02-11T05:01:32;48.53;;;32.80;;
11191;SDS011;5652;48.406;10.820;2023-02-11T05:03:59;48.57;;;32.43;;
11191;SDS011;5652;48.406;10.820;2023-02-11T05:06:28;45.97;;;30.88;;
11191;SDS011;5652;48.406;10.820;2023-02-11T05:08:55;47.53;;;32.13;;
11191;SDS011;5652;48.406;10.820;2023-02-11T05:11:23;48.87;;;32.30;;
11191;SDS011;5652;48.406;10.820;2023-02-11T05:13:51;45.40;;;31.05;;
11191;SDS011;5652;48.406;10.820;2023-02-11T05:16:18;44.83;;;31.00;;
11191;SDS011;5652;48.406;10.820;2023-02-11T05:18:45;42.03;;;30.17;;
11191;SDS011;5652;48.406;10.820;2023-02-11T05:21:14;43.58;;;29.98;;
11191;SDS011;5652;48.406;10.820;2023-02-11T05:23:43;41.33;;;29.67;;
11191;SDS011;5652;48.406;10.820;2023-02-11T05:26:10;44.63;;;30.42;;
11191;SDS011;5652;48.406;10.820;2023-02-11T05:28:38;44.53;;;30.40;;
11191;SDS011;5652;48.406;10.820;2023-02-11T05:31:05;41.97;;;29.73;;
11191;SDS011;5652;48.406;10.820;2023-02-11T05:33:32;41.50;;;29.20;;
11191;SDS011;5652;48.406;10.820;2023-02-11T05:36:00;43.85;;;29.73;;
11191;SDS011;5652;48.406;10.820;2023-02-11T05:38:27;41.67;;;28.83;;
11191;SDS011;5652;48.406;10.820;2023-02-11T05:40:55;39.83;;;28.48;;
11191;SDS011;5652;48.406;10.820;2023-02-11T05:43:23;41.50;;;28.52;;
11191;SDS011;5652;48.406;10.820;2023-02-11T05:45:50;44.33;;;29.60;;
11191;SDS011;5652;48.406;10.820;2023-02-11T05:48:17;41.33;;;29.33;;
11191;SDS011;5652;48.406;10.820;2023-02-11T05:50:44;39.63;;;28.27;;
11191;SDS011;5652;48.406;10.820;2023-02-11T05:53:11;42.15;;;28.52;;
11191;SDS011;5652;48.406;10.820;2023-02-11T05:55:38;39.40;;;28.42;;
11191;SDS011;5652;48.406;10.820;2023-02-11T05:58:07;40.65;;;28.33;;
11191;SDS011;5652;48.406;10.820;2023-02-11T06:00:34;41.05;;;29.02;;
11191;SDS011;5652;48.406;10.820;2023-02-11T06:03:02;39.38;;;28.65;;
11191;SDS011;5652;48.406;10.820;2023-02-11T06:05:29;39.53;;;28.85;;
11191;SDS011;5652;48.406;10.820;2023-02-11T06:07:56;42.53;;;29.50;;
11191;SDS011;5652;48.406;10.820;2023-02-11T06:10:24;42.22;;;29.98;;
11191;SDS011;5652;48.406;10.820;2023-02-11T06:12:51;40.28;;;27.98;;
11191;SDS011;5652;48.406;10.820;2023-02-11T06:15:19;40.88;;;28.90;;
11191;SDS011;5652;48.406;10.820;2023-02-11T06:17:47;40.08;;;28.40;;
11191;SDS011;5652;48.406;10.820;2023-02-11T06:20:14;40.40;;;28.67;;
11191;SDS011;5652;48.406;10.820;2023-02-11T06:22:41;39.95;;;27.65;;
11191;SDS011;5652;48.406;10.820;2023-02-11T06:25:08;38.50;;;27.95;;
11191;SDS011;5652;48.406;10.820;2023-02-11T06:27:36;36.83;;;26.83;;
11191;SDS011;5652;48.406;10.820;2023-02-11T06:30:03;37.30;;;27.15;;
11191;SDS011;5652;48.406;10.820;2023-02-11T06:32:32;36.38;;;26.27;;
11191;SDS011;5652;48.406;10.820;2023-02-11T06:35:00;37.42;;;26.98;;
11191;SDS011;5652;48.406;10.820;2023-02-11T06:37:27;35.92;;;25.92;;
11191;SDS011;5652;48.406;10.820;2023-02-11T06:39:54;38.08;;;26.50;;
11191;SDS011;5652;48.406;10.820;2023-02-11T06:42:21;34.35;;;25.25;;
11191;SDS011;5652;48.406;10.820;2023-02-11T06:44:48;36.65;;;25.65;;
11191;SDS011;5652;48.406;10.820;2023-02-11T06:47:15;36.67;;;26.55;;
11191;SDS011;5652;48.406;10.820;2023-02-11T06:49:44;36.58;;;26.17;;
11191;SDS011;5652;48.406;10.820;2023-02-11T06:52:11;37.63;;;26.40;;
11191;SDS011;5652;48.406;10.820;2023-02-11T06:54:38;36.00;;;25.65;;
11191;SDS011;5652;48.406;10.820;2023-02-11T06:57:05;35.25;;;25.23;;
11191;SDS011;5652;48.406;10.820;2023-02-11T06:59:33;36.85;;;24.88;;
11191;SDS011;5652;48.406;10.820;2023-02-11T07:02:00;34.47;;;24.93;;
11191;SDS011;5652;48.406;10.820;2023-02-11T07:04:28;34.33;;;24.75;;
11191;SDS011;5652;48.406;10.820;2023-02-11T07:06:57;35.05;;;25.23;;
11191;SDS011;5652;48.406;10.820;2023-02-11T07:09:24;33.25;;;24.85;;
11191;SDS011;5652;48.406;10.820;2023-02-11T07:11:51;35.47;;;25.73;;
11191;SDS011;5652;48.406;10.820;2023-02-11T07:14:18;35.00;;;25.42;;
11191;SDS011;5652;48.406;10.820;2023-02-11T07:16:45;33.87;;;25.07;;
11191;SDS011;5652;48.406;10.820;2023-02-11T07:19:12;36.25;;;26.05;;
11191;SDS011;5652;48.406;10.820;2023-02-11T07:21:40;34.13;;;24.42;;
11191;SDS011;5652;48.406;10.820;2023-02-11T07:24:08;34.67;;;24.98;;
11191;SDS011;5652;48.406;10.820;2023-02-11T07:26:35;32.35;;;24.27;;
11191;SDS011;5652;48.406;10.820;2023-02-11T07:29:03;31.75;;;22.40;;
11191;SDS011;5652;48.406;10.820;2023-02-11T07:31:30;30.70;;;22.43;;
11191;SDS011;5652;48.406;10.820;2023-02-11T07:34:01;32.28;;;22.67;;
11191;SDS011;5652;48.406;10.820;2023-02-11T07:36:29;29.75;;;22.25;;
11191;SDS011;5652;48.406;10.820;2023-02-11T07:38:56;31.30;;;22.55;;
11191;SDS011;5652;48.406;10.820;2023-02-11T07:41:25;30.95;;;22.08;;
11191;SDS011;5652;48.406;10.820;2023-02-11T07:43:52;30.07;;;21.70;;
11191;SDS011;5652;48.406;10.820;2023-02-11T07:46:21;29.15;;;21.40;;
11191;SDS011;5652;48.406;10.820;2023-02-11T07:48:48;30.20;;;21.90;;
11191;SDS011;5652;48.406;10.820;2023-02-11T07:51:16;27.60;;;20.52;;
11191;SDS011;5652;48.406;10.820;2023-02-11T07:53:44;27.80;;;20.13;;
11191;SDS011;5652;48.406;10.820;2023-02-11T07:56:12;27.10;;;20.45;;
11191;SDS011;5652;48.406;10.820;2023-02-11T07:58:41;28.45;;;20.63;;
11191;SDS011;5652;48.406;10.820;2023-02-11T08:01:09;29.63;;;21.15;;
11191;SDS011;5652;48.406;10.820;2023-02-11T08:03:37;27.92;;;20.80;;
11191;SDS011;5652;48.406;10.820;2023-02-11T08:06:06;26.07;;;20.27;;
11191;SDS011;5652;48.406;10.820;2023-02-11T08:08:34;29.50;;;20.85;;
11191;SDS011;5652;48.406;10.820;2023-02-11T08:11:04;29.48;;;20.67;;
11191;SDS011;5652;48.406;10.820;2023-02-11T08:13:31;29.05;;;21.90;;
11191;SDS011;5652;48.406;10.820;2023-02-11T08:16:00;30.30;;;21.42;;
11191;SDS011;5652;48.406;10.820;2023-02-11T08:18:27;29.58;;;21.55;;
11191;SDS011;5652;48.406;10.820;2023-02-11T08:20:54;29.05;;;20.27;;
11191;SDS011;5652;48.406;10.820;2023-02-11T08:23:21;27.02;;;19.08;;
11191;SDS011;5652;48.406;10.820;2023-02-11T08:25:48;26.42;;;19.08;;
11191;SDS011;5652;48.406;10.820;2023-02-11T08:28:16;27.77;;;18.57;;
11191;SDS011;5652;48.406;10.820;2023-02-11T08:30:43;24.00;;;17.45;;
11191;SDS011;5652;48.406;10.820;2023-02-11T08:33:11;23.27;;;15.70;;
11191;SDS011;5652;48.406;10.820;2023-02-11T08:35:38;24.03;;;15.23;;
11191;SDS011;5652;48.406;10.820;2023-02-11T08:38:06;21.73;;;14.50;;
11191;SDS011;5652;48.406;10.820;2023-02-11T08:40:33;22.10;;;14.68;;
11191;SDS011;5652;48.406;10.820;2023-02-11T08:43:00;21.07;;;13.23;;
11191;SDS011;5652;48.406;10.820;2023-02-11T08:45:27;20.77;;;13.73;;
11191;SDS011;5652;48.406;10.820;2023-02-11T08:47:54;22.48;;;14.02;;
11191;SDS011;5652;48.406;10.820;2023-02-11T08:50:23;21.40;;;14.18;;
11191;SDS011;5652;48.406;10.820;2023-02-11T08:52:52;23.10;;;14.20;;
11191;SDS011;5652;48.406;10.820;2023-02-11T08:55:19;20.42;;;13.55;;
11191;SDS011;5652;48.406;10.820;2023-02-11T08:57:46;22.80;;;14.57;;
11191;SDS011;5652;48.406;10.820;2023-02-11T09:00:14;20.52;;;13.80;;
11191;SDS011;5652;48.406;10.820;2023-02-11T09:02:41;22.95;;;14.95;;
11191;SDS011;5652;48.406;10.820;2023-02-11T09:05:08;22.83;;;16.75;;
11191;SDS011;5652;48.406;10.820;2023-02-11T09:07:37;22.98;;;16.45;;
11191;SDS011;5652;48.406;10.820;2023-02-11T09:10:04;23.25;;;17.08;;
11191;SDS011;5652;48.406;10.820;2023-02-11T09:12:31;25.33;;;16.73;;
11191;SDS011;5652;48.406;10.820;2023-02-11T09:14:59;24.30;;;17.20;;
11191;SDS011;5652;48.406;10.820;2023-02-11T09:17:27;24.30;;;16.98;;
11191;SDS011;5652;48.406;10.820;2023-02-11T09:19:54;24.55;;;17.15;;
11191;SDS011;5652;48.406;10.820;2023-02-11T09:22:21;23.77;;;16.27;;
11191;SDS011;5652;48.406;10.820;2023-02-11T09:24:50;23.77;;;15.90;;
11191;SDS011;5652;48.406;10.820;2023-02-11T09:27:18;25.35;;;15.30;;
11191;SDS011;5652;48.406;10.820;2023-02-11T09:29:45;23.60;;;15.63;;
11191;SDS011;5652;48.406;10.820;2023-02-11T09:32:12;21.35;;;14.50;;
11191;SDS011;5652;48.406;10.820;2023-02-11T09:34:40;23.27;;;15.75;;
11191;SDS011;5652;48.406;10.820;2023-02-11T09:37:07;28.70;;;18.92;;
11191;SDS011;5652;48.406;10.820;2023-02-11T09:39:34;22.73;;;15.57;;
11191;SDS011;5652;48.406;10.820;2023-02-11T09:42:09;26.02;;;16.17;;
11191;SDS011;5652;48.406;10.820;2023-02-11T09:44:45;22.73;;;15.18;;
11191;SDS011;5652;48.406;10.820;2023-02-11T09:47:19;24.60;;;15.55;;
11191;SDS011;5652;48.406;10.820;2023-02-11T09:49:49;22.33;;;14.20;;
11191;SDS011;5652;48.406;10.820;2023-02-11T09:52:17;23.92;;;14.20;;
11191;SDS011;5652;48.406;10.820;2023-02-11T09:54:49;25.38;;;14.70;;
11191;SDS011;5652;48.406;10.820;2023-02-11T09:57:21;22.67;;;14.68;;
11191;SDS011;5652;48.406;10.820;2023-02-11T09:59:48;23.55;;;14.48;;
11191;SDS011;5652;48.406;10.820;2023-02-11T10:02:16;23.48;;;13.93;;
11191;SDS011;5652;48.406;10.820;2023-02-11T10:04:49;22.35;;;13.75;;
11191;SDS011;5652;48.406;10.820;2023-02-11T10:07:23;20.33;;;13.52;;
11191;SDS011;5652;48.406;10.820;2023-02-11T10:09:56;22.13;;;13.68;;
11191;SDS011;5652;48.406;10.820;2023-02-11T10:12:42;19.42;;;13.38;;
11191;SDS011;5652;48.406;10.820;2023-02-11T10:15:14;21.98;;;13.40;;
11191;SDS011;5652;48.406;10.820;2023-02-11T10:17:45;21.60;;;13.85;;
11191;SDS011;5652;48.406;10.820;2023-02-11T10:20:19;22.15;;;13.15;;
11191;SDS011;5652;48.406;10.820;2023-02-11T10:22:49;23.35;;;13.70;;
11191;SDS011;5652;48.406;10.820;2023-02-11T10:25:18;24.90;;;13.93;;
11191;SDS011;5652;48.406;10.820;2023-02-11T10:27:48;22.05;;;12.77;;
11191;SDS011;5652;48.406;10.820;2023-02-11T10:30:18;20.50;;;12.80;;
11191;SDS011;5652;48.406;10.820;2023-02-11T10:32:47;20.70;;;12.20;;
11191;SDS011;5652;48.406;10.820;2023-02-11T10:35:17;18.85;;;10.82;;
11191;SDS011;5652;48.406;10.820;2023-02-11T10:37:45;16.52;;;10.18;;
11191;SDS011;5652;48.406;10.820;2023-02-11T10:40:13;15.13;;;9.15;;
11191;SDS011;5652;48.406;10.820;2023-02-11T10:42:40;17.27;;;10.10;;
11191;SDS011;5652;48.406;10.820;2023-02-11T10:45:14;16.35;;;9.93;;
11191;SDS011;5652;48.406;10.820;2023-02-11T10:47:43;16.65;;;9.40;;
11191;SDS011;5652;48.406;10.820;2023-02-11T10:50:18;13.90;;;8.75;;
11191;SDS011;5652;48.406;10.820;2023-02-11T10:52:45;14.33;;;8.40;;
11191;SDS011;5652;48.406;10.820;2023-02-11T10:55:14;11.93;;;7.50;;
11191;SDS011;5652;48.406;10.820;2023-02-11T10:57:42;15.88;;;9.30;;
11191;SDS011;5652;48.406;10.820;2023-02-11T11:00:22;14.60;;;9.40;;
11191;SDS011;5652;48.406;10.820;2023-02-11T11:02:53;14.55;;;8.60;;
11191;SDS011;5652;48.406;10.820;2023-02-11T11:05:22;13.23;;;8.00;;
11191;SDS011;5652;48.406;10.820;2023-02-11T11:07:52;11.93;;;7.57;;
11191;SDS011;5652;48.406;10.820;2023-02-11T11:10:27;14.50;;;9.35;;
11191;SDS011;5652;48.406;10.820;2023-02-11T11:12:55;15.00;;;9.30;;
11191;SDS011;5652;48.406;10.820;2023-02-11T11:15:23;15.55;;;9.05;;
11191;SDS011;5652;48.406;10.820;2023-02-11T11:18:08;13.63;;;9.43;;
11191;SDS011;5652;48.406;10.820;2023-02-11T11:20:35;13.65;;;9.30;;
11191;SDS011;5652;48.406;10.820;2023-02-11T11:23:10;13.48;;;8.45;;
11191;SDS011;5652;48.406;10.820;2023-02-11T11:25:38;10.30;;;6.38;;
11191;SDS011;5652;48.406;10.820;2023-02-11T11:28:15;11.02;;;6.93;;
11191;SDS011;5652;48.406;10.820;2023-02-11T11:30:46;11.73;;;6.78;;
11191;SDS011;5652;48.406;10.820;2023-02-11T11:33:15;11.45;;;6.47;;
11191;SDS011;5652;48.406;10.820;2023-02-11T11:35:51;10.35;;;6.63;;
11191;SDS011;5652;48.406;10.820;2023-02-11T11:38:21;12.73;;;7.40;;
11191;SDS011;5652;48.406;10.820;2023-02-11T11:40:49;13.40;;;7.50;;
11191;SDS011;5652;48.406;10.820;2023-02-11T11:43:36;14.25;;;8.07;;
11191;SDS011;5652;48.406;10.820;2023-02-11T11:46:05;13.73;;;8.20;;
11191;SDS011;5652;48.406;10.820;2023-02-11T11:48:36;12.13;;;7.13;;
11191;SDS011;5652;48.406;10.820;2023-02-11T11:51:05;7.45;;;5.28;;
11191;SDS011;5652;48.406;10.820;2023-02-11T11:53:36;11.63;;;6.30;;
11191;SDS011;5652;48.406;10.820;2023-02-11T11:56:05;9.68;;;5.97;;
11191;SDS011;5652;48.406;10.820;2023-02-11T11:58:32;6.40;;;4.22;;
11191;SDS011;5652;48.406;10.820;2023-02-11T12:01:03;9.20;;;4.93;;
11191;SDS011;5652;48.406;10.820;2023-02-11T12:06:23;4.67;;;3.10;;
11191;SDS011;5652;48.406;10.820;2023-02-11T12:08:54;9.10;;;4.68;;
11191;SDS011;5652;48.406;10.820;2023-02-11T12:11:29;7.13;;;3.92;;
11191;SDS011;5652;48.406;10.820;2023-02-11T12:14:04;5.80;;;3.47;;
11191;SDS011;5652;48.406;10.820;2023-02-11T12:16:37;7.03;;;3.78;;
11191;SDS011;5652;48.406;10.820;2023-02-11T12:19:15;7.47;;;4.20;;
11191;SDS011;5652;48.406;10.820;2023-02-11T12:21:47;8.57;;;4.50;;
11191;SDS011;5652;48.406;10.820;2023-02-11T12:24:28;8.07;;;5.18;;
11191;SDS011;5652;48.406;10.820;2023-02-11T12:26:59;7.32;;;4.82;;
11191;SDS011;5652;48.406;10.820;2023-02-11T12:29:30;8.30;;;5.10;;
11191;SDS011;5652;48.406;10.820;2023-02-11T12:32:03;9.20;;;5.45;;
11191;SDS011;5652;48.406;10.820;2023-02-11T12:34:40;7.68;;;5.18;;
11191;SDS011;5652;48.406;10.820;2023-02-11T12:37:15;8.05;;;5.30;;
11191;SDS011;5652;48.406;10.820;2023-02-11T12:39:47;8.53;;;5.80;;
11191;SDS011;5652;48.406;10.820;2023-02-11T12:45:21;6.55;;;4.35;;
11191;SDS011;5652;48.406;10.820;2023-02-11T12:47:56;9.13;;;5.68;;
11191;SDS011;5652;48.406;10.820;2023-02-11T12:50:29;9.88;;;5.60;;
11191;SDS011;5652;48.406;10.820;2023-02-11T12:53:06;9.15;;;6.05;;
11191;SDS011;5652;48.406;10.820;2023-02-11T12:55:34;9.27;;;5.10;;
11191;SDS011;5652;48.406;10.820;2023-02-11T12:58:02;9.63;;;5.60;;
11191;SDS011;5652;48.406;10.820;2023-02-11T13:00:34;7.95;;;5.70;;
11191;SDS011;5652;48.406;10.820;2023-02-11T13:03:04;8.50;;;4.90;;
11191;SDS011;5652;48.406;10.820;2023-02-11T13:05:37;9.87;;;5.73;;
11191;SDS011;5652;48.406;10.820;2023-02-11T13:08:08;7.80;;;5.07;;
11191;SDS011;5652;48.406;10.820;2023-02-11T13:10:37;7.82;;;4.85;;
11191;SDS011;5652;48.406;10.820;2023-02-11T13:13:10;8.70;;;5.15;;
11191;SDS011;5652;48.406;10.820;2023-02-11T13:15:42;9.80;;;4.93;;
11191;SDS011;5652;48.406;10.820;2023-02-11T13:18:12;9.90;;;5.30;;
11191;SDS011;5652;48.406;10.820;2023-02-11T13:20:41;8.00;;;5.33;;
11191;SDS011;5652;48.406;10.820;2023-02-11T13:23:15;10.27;;;6.15;;
11191;SDS011;5652;48.406;10.820;2023-02-11T13:25:44;9.45;;;5.97;;
11191;SDS011;5652;48.406;10.820;2023-02-11T13:28:17;10.05;;;5.40;;
11191;SDS011;5652;48.406;10.820;2023-02-11T13:30:46;8.43;;;5.35;;
11191;SDS011;5652;48.406;10.820;2023-02-11T13:33:31;12.48;;;6.72;;
11191;SDS011;5652;48.406;10.820;2023-02-11T13:36:12;7.10;;;4.78;;
11191;SDS011;5652;48.406;10.820;2023-02-11T13:38:43;6.10;;;3.83;;
11191;SDS011;5652;48.406;10.820;2023-02-11T13:41:18;9.63;;;6.07;;
11191;SDS011;5652;48.406;10.820;2023-02-11T13:43:55;9.65;;;6.05;;
11191;SDS011;5652;48.406;10.820;2023-02-11T13:46:23;8.98;;;5.32;;
11191;SDS011;5652;48.406;10.820;2023-02-11T13:48:51;10.18;;;5.60;;
11191;SDS011;5652;48.406;10.820;2023-02-11T13:51:32;9.02;;;6.03;;
11191;SDS011;5652;48.406;10.820;2023-02-11T13:54:00;8.55;;;5.68;;
11191;SDS011;5652;48.406;10.820;2023-02-11T13:56:28;11.35;;;6.20;;
11191;SDS011;5652;48.406;10.820;2023-02-11T13:59:02;10.70;;;6.25;;
11191;SDS011;5652;48.406;10.820;2023-02-11T14:01:37;11.05;;;5.60;;
11191;SDS011;5652;48.406;10.820;2023-02-11T14:04:12;8.90;;;5.43;;
11191;SDS011;5652;48.406;10.820;2023-02-11T14:07:20;10.18;;;6.00;;
11191;SDS011;5652;48.406;10.820;2023-02-11T14:13:05;8.50;;;5.38;;
11191;SDS011;5652;48.406;10.820;2023-02-11T14:15:39;8.70;;;4.93;;
11191;SDS011;5652;48.406;10.820;2023-02-11T14:20:48;9.95;;;5.20;;
11191;SDS011;5652;48.406;10.820;2023-02-11T14:23:23;8.93;;;5.15;;
11191;SDS011;5652;48.406;10.820;2023-02-11T14:26:00;9.70;;;5.45;;
11191;SDS011;5652;48.406;10.820;2023-02-11T14:28:31;10.65;;;6.82;;
11191;SDS011;5652;48.406;10.820;2023-02-11T14:31:02;9.20;;;6.53;;
11191;SDS011;5652;48.406;10.820;2023-02-11T14:36:30;9.48;;;5.50;;
11191;SDS011;5652;48.406;10.820;2023-02-11T14:39:05;9.65;;;5.03;;
11191;SDS011;5652;48.406;10.820;2023-02-11T14:41:37;10.20;;;6.35;;
11191;SDS011;5652;48.406;10.820;2023-02-11T14:44:10;9.38;;;6.30;;
11191;SDS011;5652;48.406;10.820;2023-02-11T14:46:42;11.38;;;6.60;;
11191;SDS011;5652;48.406;10.820;2023-02-11T14:49:11;11.70;;;6.80;;
11191;SDS011;5652;48.406;10.820;2023-02-11T14:51:39;9.88;;;5.57;;
11191;SDS011;5652;48.406;10.820;2023-02-11T14:54:09;7.57;;;4.75;;
11191;SDS011;5652;48.406;10.820;2023-02-11T14:56:39;7.03;;;4.60;;
11191;SDS011;5652;48.406;10.820;2023-02-11T14:59:13;9.98;;;5.32;;
11191;SDS011;5652;48.406;10.820;2023-02-11T15:01:43;8.50;;;4.90;;
11191;SDS011;5652;48.406;10.820;2023-02-11T15:04:20;7.97;;;4.97;;
11191;SDS011;5652;48.406;10.820;2023-02-11T15:06:48;9.73;;;4.60;;
11191;SDS011;5652;48.406;10.820;2023-02-11T15:09:16;10.07;;;5.20;;